TAR745 EGCC-EGLL
Flight info
| Callsign | TAR745 |
|---|---|
| Flight time | 0h 29m |
| Altitude | 17000 |
| Route | LISTO L612 HON |
| Aircraft | A320/M-SDE3FGHIRWY/LB1 |
Departure
| Time | 2026-05-06 16:07 |
|---|---|
| Airport | Manchester Airport (EGCC) |
Arrival
| Time | 2026-05-06 16:37 |
|---|---|
| Airport | London Heathrow Airport (EGLL) |
| Time | Latitude | Longitude | Altitude | Speed | Heading |
|---|---|---|---|---|---|
| 2026-05-06 15:43 | 53.36012 | -2.26927 | 233 ft | 0 kts | 316° |
| 2026-05-06 15:57 | 53.36003 | -2.26914 | 233 ft | 4 kts | 313° |
| 2026-05-06 15:57 | 53.35987 | -2.26879 | 233 ft | 4 kts | 292° |
| 2026-05-06 15:58 | 53.35983 | -2.26845 | 235 ft | 4 kts | 210° |
| 2026-05-06 15:58 | 53.35991 | -2.26840 | 237 ft | 1 kts | 187° |
| 2026-05-06 15:58 | 53.35992 | -2.26840 | 237 ft | 0 kts | 187° |
| 2026-05-06 16:01 | 53.35951 | -2.26841 | 233 ft | 7 kts | 169° |
| 2026-05-06 16:01 | 53.35908 | -2.26844 | 234 ft | 6 kts | 206° |
| 2026-05-06 16:02 | 53.35868 | -2.26906 | 234 ft | 11 kts | 229° |
| 2026-05-06 16:02 | 53.35816 | -2.27039 | 233 ft | 17 kts | 240° |
| 2026-05-06 16:02 | 53.35732 | -2.27223 | 233 ft | 22 kts | 231° |
| 2026-05-06 16:02 | 53.35631 | -2.27427 | 233 ft | 23 kts | 230° |
| 2026-05-06 16:03 | 53.35527 | -2.27647 | 233 ft | 25 kts | 229° |
| 2026-05-06 16:03 | 53.35456 | -2.27860 | 233 ft | 17 kts | 256° |
| 2026-05-06 16:03 | 53.35398 | -2.28014 | 233 ft | 15 kts | 225° |
| 2026-05-06 16:03 | 53.35326 | -2.28132 | 233 ft | 14 kts | 222° |
| 2026-05-06 16:04 | 53.35260 | -2.28243 | 233 ft | 13 kts | 228° |
| 2026-05-06 16:04 | 53.35204 | -2.28356 | 233 ft | 12 kts | 231° |
| 2026-05-06 16:04 | 53.35154 | -2.28462 | 234 ft | 11 kts | 231° |
| 2026-05-06 16:04 | 53.35105 | -2.28561 | 233 ft | 11 kts | 231° |
| 2026-05-06 16:05 | 53.35061 | -2.28654 | 233 ft | 10 kts | 231° |
| 2026-05-06 16:05 | 53.35017 | -2.28736 | 233 ft | 9 kts | 226° |
| 2026-05-06 16:05 | 53.34973 | -2.28813 | 233 ft | 10 kts | 226° |
| 2026-05-06 16:05 | 53.34906 | -2.28930 | 233 ft | 17 kts | 226° |
| 2026-05-06 16:06 | 53.34809 | -2.29101 | 233 ft | 23 kts | 226° |
| 2026-05-06 16:06 | 53.34692 | -2.29317 | 233 ft | 27 kts | 210° |
| 2026-05-06 16:06 | 53.34543 | -2.29228 | 235 ft | 25 kts | 87° |
| 2026-05-06 16:06 | 53.34651 | -2.29006 | 233 ft | 26 kts | 50° |
| 2026-05-06 16:07 | 53.34819 | -2.28645 | 239 ft | 75 kts | 51° |
| 2026-05-06 16:07 | 53.35346 | -2.27549 | 237 ft | 160 kts | 51° |
| 2026-05-06 16:07 | 53.36166 | -2.25846 | 484 ft | 196 kts | 50° |
| 2026-05-06 16:07 | 53.37007 | -2.24157 | 1940 ft | 189 kts | 50° |
| 2026-05-06 16:08 | 53.37723 | -2.22316 | 2927 ft | 193 kts | 76° |
| 2026-05-06 16:08 | 53.37572 | -2.20002 | 3410 ft | 218 kts | 118° |
| 2026-05-06 16:08 | 53.36393 | -2.18235 | 3864 ft | 246 kts | 155° |
| 2026-05-06 16:08 | 53.34694 | -2.17375 | 4635 ft | 263 kts | 167° |
| 2026-05-06 16:09 | 53.32855 | -2.17041 | 5124 ft | 269 kts | 179° |
| 2026-05-06 16:09 | 53.30985 | -2.17278 | 5566 ft | 270 kts | 185° |
| 2026-05-06 16:09 | 53.29111 | -2.17580 | 6017 ft | 272 kts | 185° |
| 2026-05-06 16:09 | 53.27217 | -2.17877 | 6461 ft | 274 kts | 185° |
| 2026-05-06 16:10 | 53.25329 | -2.18171 | 6882 ft | 276 kts | 185° |
| 2026-05-06 16:10 | 53.23378 | -2.18476 | 7314 ft | 279 kts | 186° |
| 2026-05-06 16:10 | 53.21456 | -2.18776 | 7743 ft | 282 kts | 186° |
| 2026-05-06 16:10 | 53.19495 | -2.19086 | 8190 ft | 284 kts | 186° |
| 2026-05-06 16:11 | 53.17516 | -2.19400 | 8628 ft | 287 kts | 186° |
| 2026-05-06 16:11 | 53.15523 | -2.19667 | 9080 ft | 289 kts | 181° |
| 2026-05-06 16:11 | 53.13519 | -2.19243 | 9538 ft | 293 kts | 165° |
| 2026-05-06 16:11 | 53.11609 | -2.18029 | 9995 ft | 295 kts | 158° |
| 2026-05-06 16:12 | 53.09665 | -2.16675 | 10416 ft | 314 kts | 158° |
| 2026-05-06 16:12 | 53.07567 | -2.15223 | 10844 ft | 336 kts | 158° |
| 2026-05-06 16:12 | 53.05382 | -2.13714 | 11269 ft | 344 kts | 158° |
| 2026-05-06 16:12 | 53.03158 | -2.12179 | 11702 ft | 347 kts | 158° |
| 2026-05-06 16:13 | 53.00918 | -2.10634 | 12142 ft | 350 kts | 158° |
| 2026-05-06 16:13 | 52.98662 | -2.09080 | 12590 ft | 352 kts | 158° |
| 2026-05-06 16:13 | 52.96392 | -2.07518 | 13033 ft | 355 kts | 158° |
| 2026-05-06 16:13 | 52.94103 | -2.05946 | 13482 ft | 357 kts | 159° |
| 2026-05-06 16:14 | 52.91793 | -2.04362 | 13939 ft | 360 kts | 159° |
| 2026-05-06 16:14 | 52.89473 | -2.02766 | 14348 ft | 362 kts | 159° |
| 2026-05-06 16:14 | 52.87138 | -2.01162 | 14763 ft | 364 kts | 159° |
| 2026-05-06 16:14 | 52.84794 | -1.99556 | 15183 ft | 366 kts | 159° |
| 2026-05-06 16:15 | 52.82435 | -1.97946 | 15608 ft | 368 kts | 159° |
| 2026-05-06 16:15 | 52.80093 | -1.96350 | 16039 ft | 370 kts | 159° |
| 2026-05-06 16:15 | 52.77679 | -1.94704 | 16483 ft | 372 kts | 159° |
| 2026-05-06 16:15 | 52.75310 | -1.93088 | 16899 ft | 375 kts | 159° |
| 2026-05-06 16:16 | 52.72889 | -1.91440 | 17022 ft | 379 kts | 159° |
| 2026-05-06 16:16 | 52.70427 | -1.89770 | 17036 ft | 385 kts | 159° |
| 2026-05-06 16:16 | 52.67946 | -1.88094 | 17034 ft | 386 kts | 159° |
| 2026-05-06 16:16 | 52.65426 | -1.86392 | 17031 ft | 386 kts | 159° |
| 2026-05-06 16:17 | 52.62945 | -1.84713 | 17031 ft | 386 kts | 159° |
| 2026-05-06 16:17 | 52.60462 | -1.83033 | 17030 ft | 386 kts | 159° |
| 2026-05-06 16:17 | 52.58011 | -1.81376 | 17028 ft | 386 kts | 159° |
| 2026-05-06 16:17 | 52.55529 | -1.79699 | 17025 ft | 386 kts | 159° |
| 2026-05-06 16:18 | 52.53047 | -1.78021 | 17031 ft | 386 kts | 159° |
| 2026-05-06 16:18 | 52.50566 | -1.76345 | 17026 ft | 386 kts | 159° |
| 2026-05-06 16:18 | 52.48087 | -1.74675 | 17025 ft | 385 kts | 159° |
| 2026-05-06 16:18 | 52.45604 | -1.73011 | 17029 ft | 385 kts | 159° |
| 2026-05-06 16:19 | 52.43121 | -1.71357 | 17026 ft | 385 kts | 159° |
| 2026-05-06 16:19 | 52.40635 | -1.69702 | 17028 ft | 386 kts | 159° |
| 2026-05-06 16:19 | 52.38153 | -1.68044 | 17030 ft | 386 kts | 159° |
| 2026-05-06 16:19 | 52.35752 | -1.66086 | 17025 ft | 387 kts | 149° |
| 2026-05-06 16:20 | 52.33593 | -1.63461 | 17031 ft | 388 kts | 140° |
| 2026-05-06 16:20 | 52.31557 | -1.60565 | 17027 ft | 388 kts | 140° |
| 2026-05-06 16:20 | 52.29520 | -1.57679 | 17025 ft | 388 kts | 140° |
| 2026-05-06 16:20 | 52.27483 | -1.54800 | 17026 ft | 387 kts | 140° |
| 2026-05-06 16:21 | 52.25439 | -1.51920 | 17028 ft | 387 kts | 140° |
| 2026-05-06 16:21 | 52.23398 | -1.49053 | 17024 ft | 387 kts | 140° |
| 2026-05-06 16:21 | 52.21355 | -1.46190 | 17026 ft | 388 kts | 140° |
| 2026-05-06 16:21 | 52.19308 | -1.43323 | 17024 ft | 388 kts | 140° |
| 2026-05-06 16:22 | 52.17262 | -1.40464 | 17027 ft | 388 kts | 140° |
| 2026-05-06 16:22 | 52.15216 | -1.37611 | 17028 ft | 388 kts | 140° |
| 2026-05-06 16:22 | 52.13166 | -1.34759 | 17023 ft | 388 kts | 140° |
| 2026-05-06 16:22 | 52.11112 | -1.31906 | 17023 ft | 388 kts | 140° |
| 2026-05-06 16:23 | 52.09060 | -1.29056 | 17027 ft | 388 kts | 140° |
| 2026-05-06 16:23 | 52.07029 | -1.26232 | 16842 ft | 379 kts | 140° |
| 2026-05-06 16:23 | 52.05049 | -1.23485 | 16575 ft | 370 kts | 140° |
| 2026-05-06 16:23 | 52.03109 | -1.20795 | 16300 ft | 365 kts | 140° |
| 2026-05-06 16:24 | 52.01186 | -1.18128 | 16036 ft | 363 kts | 140° |
| 2026-05-06 16:24 | 51.99268 | -1.15474 | 15782 ft | 361 kts | 140° |
| 2026-05-06 16:24 | 51.97365 | -1.12845 | 15388 ft | 357 kts | 140° |
| 2026-05-06 16:24 | 51.95479 | -1.10246 | 14893 ft | 356 kts | 140° |
| 2026-05-06 16:25 | 51.93567 | -1.07618 | 14052 ft | 365 kts | 140° |
| 2026-05-06 16:25 | 51.91649 | -1.04982 | 13823 ft | 354 kts | 140° |
| 2026-05-06 16:25 | 51.89836 | -1.02491 | 13681 ft | 329 kts | 140° |
| 2026-05-06 16:25 | 51.88145 | -1.00163 | 13396 ft | 312 kts | 140° |
| 2026-05-06 16:26 | 51.86512 | -0.97912 | 12887 ft | 305 kts | 139° |
| 2026-05-06 16:26 | 51.85109 | -0.95401 | 12347 ft | 299 kts | 123° |
| 2026-05-06 16:26 | 51.84144 | -0.92469 | 11833 ft | 292 kts | 115° |
| 2026-05-06 16:26 | 51.83258 | -0.89539 | 11326 ft | 288 kts | 115° |
| 2026-05-06 16:27 | 51.82381 | -0.86662 | 10827 ft | 283 kts | 115° |
| 2026-05-06 16:27 | 51.81512 | -0.83833 | 10336 ft | 279 kts | 115° |
| 2026-05-06 16:27 | 51.80657 | -0.81056 | 9838 ft | 274 kts | 115° |
| 2026-05-06 16:27 | 51.79814 | -0.78321 | 9311 ft | 270 kts | 115° |
| 2026-05-06 16:28 | 51.78985 | -0.75632 | 8780 ft | 265 kts | 115° |
| 2026-05-06 16:28 | 51.78170 | -0.72990 | 8263 ft | 260 kts | 115° |
| 2026-05-06 16:28 | 51.77386 | -0.70454 | 8102 ft | 243 kts | 115° |
| 2026-05-06 16:28 | 51.76656 | -0.68096 | 7975 ft | 231 kts | 115° |
| 2026-05-06 16:29 | 51.75743 | -0.65995 | 7734 ft | 228 kts | 138° |
| 2026-05-06 16:29 | 51.74363 | -0.64775 | 7677 ft | 229 kts | 167° |
| 2026-05-06 16:29 | 51.72789 | -0.64723 | 7623 ft | 228 kts | 194° |
| 2026-05-06 16:29 | 51.71266 | -0.65354 | 7458 ft | 231 kts | 195° |
| 2026-05-06 16:30 | 51.69684 | -0.66018 | 7062 ft | 235 kts | 195° |
| 2026-05-06 16:30 | 51.68623 | -0.66463 | 6729 ft | 240 kts | 195° |
| 2026-05-06 16:30 | 51.66410 | -0.67387 | 6045 ft | 250 kts | 195° |
| 2026-05-06 16:30 | 51.64724 | -0.68085 | 5524 ft | 256 kts | 195° |
| 2026-05-06 16:31 | 51.62980 | -0.68806 | 5014 ft | 261 kts | 194° |
| 2026-05-06 16:31 | 51.61208 | -0.69536 | 4481 ft | 265 kts | 195° |
| 2026-05-06 16:31 | 51.59410 | -0.70281 | 3954 ft | 268 kts | 194° |
| 2026-05-06 16:31 | 51.57626 | -0.71022 | 3421 ft | 271 kts | 194° |
| 2026-05-06 16:32 | 51.55809 | -0.71772 | 2778 ft | 267 kts | 194° |
| 2026-05-06 16:32 | 51.54069 | -0.72488 | 2533 ft | 248 kts | 194° |
| 2026-05-06 16:32 | 51.52468 | -0.73145 | 2501 ft | 229 kts | 195° |
| 2026-05-06 16:32 | 51.50976 | -0.73761 | 2495 ft | 211 kts | 194° |
| 2026-05-06 16:33 | 51.49602 | -0.74021 | 2511 ft | 188 kts | 169° |
| 2026-05-06 16:33 | 51.48461 | -0.73211 | 2509 ft | 176 kts | 136° |
| 2026-05-06 16:33 | 51.47786 | -0.71657 | 2525 ft | 167 kts | 106° |
| 2026-05-06 16:34 | 51.47658 | -0.67936 | 2469 ft | 172 kts | 86° |
| 2026-05-06 16:34 | 51.47666 | -0.66011 | 2292 ft | 172 kts | 86° |
| 2026-05-06 16:34 | 51.47674 | -0.64129 | 2076 ft | 165 kts | 86° |
| 2026-05-06 16:34 | 51.47683 | -0.62305 | 1869 ft | 162 kts | 86° |
| 2026-05-06 16:35 | 51.47693 | -0.60500 | 1654 ft | 162 kts | 86° |
| 2026-05-06 16:35 | 51.47702 | -0.58696 | 1427 ft | 162 kts | 86° |
| 2026-05-06 16:35 | 51.47711 | -0.56921 | 1214 ft | 160 kts | 86° |
| 2026-05-06 16:35 | 51.47719 | -0.55166 | 976 ft | 157 kts | 86° |
| 2026-05-06 16:36 | 51.47726 | -0.53470 | 750 ft | 149 kts | 86° |
| 2026-05-06 16:36 | 51.47733 | -0.51837 | 513 ft | 144 kts | 86° |
| 2026-05-06 16:36 | 51.47742 | -0.50254 | 322 ft | 139 kts | 85° |
| 2026-05-06 16:36 | 51.47757 | -0.48806 | 126 ft | 135 kts | 86° |
| 2026-05-06 16:37 | 51.47763 | -0.47446 | 83 ft | 103 kts | 89° |
| 2026-05-06 16:37 | 51.47757 | -0.46665 | 96 ft | 61 kts | 91° |
| 2026-05-06 16:37 | 51.47741 | -0.46226 | 88 ft | 30 kts | 117° |
| 2026-05-06 16:37 | 51.47657 | -0.46092 | 89 ft | 25 kts | 146° |
| 2026-05-06 16:38 | 51.47528 | -0.46056 | 87 ft | 6 kts | 128° |
| 2026-05-06 16:38 | 51.47520 | -0.45993 | 85 ft | 5 kts | 88° |
| 2026-05-06 16:38 | 51.47521 | -0.45937 | 85 ft | 5 kts | 88° |
| 2026-05-06 16:38 | 51.47522 | -0.45887 | 88 ft | 4 kts | 88° |
| 2026-05-06 16:39 | 51.47521 | -0.45844 | 88 ft | 4 kts | 92° |
| 2026-05-06 16:39 | 51.47519 | -0.45806 | 86 ft | 3 kts | 98° |
| 2026-05-06 16:39 | 51.47515 | -0.45760 | 85 ft | 7 kts | 98° |
| 2026-05-06 16:39 | 51.47510 | -0.45693 | 87 ft | 11 kts | 94° |
| 2026-05-06 16:40 | 51.47508 | -0.45530 | 85 ft | 18 kts | 90° |
| 2026-05-06 16:40 | 51.47507 | -0.45294 | 85 ft | 23 kts | 90° |
| 2026-05-06 16:40 | 51.47508 | -0.45019 | 87 ft | 26 kts | 89° |
| 2026-05-06 16:40 | 51.47510 | -0.44767 | 88 ft | 23 kts | 87° |
| 2026-05-06 16:41 | 51.47494 | -0.44593 | 90 ft | 16 kts | 125° |
| 2026-05-06 16:41 | 51.47433 | -0.44560 | 85 ft | 8 kts | 177° |
| 2026-05-06 16:41 | 51.47378 | -0.44556 | 85 ft | 8 kts | 179° |
| 2026-05-06 16:41 | 51.47346 | -0.44522 | 87 ft | 5 kts | 100° |
| 2026-05-06 16:42 | 51.47341 | -0.44468 | 86 ft | 4 kts | 92° |
| 2026-05-06 16:42 | 51.47342 | -0.44423 | 87 ft | 4 kts | 88° |
| 2026-05-06 16:42 | 51.47342 | -0.44387 | 85 ft | 0 kts | 88° |